sensor_id;sensor_type;location;lat;lon;timestamp;pressure;altitude;pressure_sealevel;temperature;humidity
64713;BME280;51140;45.340;5.980;2023-02-17T00:01:41;99255.56;;;3.07;100.00
64713;BME280;51140;45.340;5.980;2023-02-17T00:04:07;99251.28;;;3.09;100.00
64713;BME280;51140;45.340;5.980;2023-02-17T00:06:32;99250.44;;;3.04;100.00
64713;BME280;51140;45.340;5.980;2023-02-17T00:08:58;99262.50;;;2.96;100.00
64713;BME280;51140;45.340;5.980;2023-02-17T00:11:24;99256.44;;;3.05;100.00
64713;BME280;51140;45.340;5.980;2023-02-17T00:13:50;99242.69;;;3.09;100.00
64713;BME280;51140;45.340;5.980;2023-02-17T00:16:20;99245.25;;;3.10;100.00
64713;BME280;51140;45.340;5.980;2023-02-17T00:18:46;99235.00;;;3.04;100.00
64713;BME280;51140;45.340;5.980;2023-02-17T00:21:20;99243.56;;;3.09;100.00
64713;BME280;51140;45.340;5.980;2023-02-17T00:23:47;99234.13;;;3.08;100.00
64713;BME280;51140;45.340;5.980;2023-02-17T00:26:13;99242.72;;;3.01;100.00
64713;BME280;51140;45.340;5.980;2023-02-17T00:28:39;99247.09;;;2.84;100.00
64713;BME280;51140;45.340;5.980;2023-02-17T00:31:10;99250.50;;;2.88;100.00
64713;BME280;51140;45.340;5.980;2023-02-17T00:33:37;99252.22;;;2.89;100.00
64713;BME280;51140;45.340;5.980;2023-02-17T00:36:07;99254.81;;;2.79;100.00
64713;BME280;51140;45.340;5.980;2023-02-17T00:38:33;99259.13;;;2.67;100.00
64713;BME280;51140;45.340;5.980;2023-02-17T00:40:59;99259.97;;;2.69;100.00
64713;BME280;51140;45.340;5.980;2023-02-17T00:43:25;99260.81;;;2.74;100.00
64713;BME280;51140;45.340;5.980;2023-02-17T00:45:50;99262.53;;;2.78;100.00
64713;BME280;51140;45.340;5.980;2023-02-17T00:48:16;99247.97;;;2.81;100.00
64713;BME280;51140;45.340;5.980;2023-02-17T00:50:41;99248.78;;;2.88;100.00
64713;BME280;51140;45.340;5.980;2023-02-17T00:53:06;99241.94;;;2.84;100.00
64713;BME280;51140;45.340;5.980;2023-02-17T00:55:32;99266.81;;;2.76;100.00
64713;BME280;51140;45.340;5.980;2023-02-17T00:57:57;99268.56;;;2.68;100.00
64713;BME280;51140;45.340;5.980;2023-02-17T01:00:23;99272.88;;;2.63;100.00
64713;BME280;51140;45.340;5.980;2023-02-17T01:02:49;99273.72;;;2.63;100.00
64713;BME280;51140;45.340;5.980;2023-02-17T01:05:14;99281.44;;;2.56;100.00
64713;BME280;51140;45.340;5.980;2023-02-17T01:07:40;99284.03;;;2.57;100.00
64713;BME280;51140;45.340;5.980;2023-02-17T01:10:06;99275.44;;;2.57;100.00
64713;BME280;51140;45.340;5.980;2023-02-17T01:12:32;99284.88;;;2.58;100.00
64713;BME280;51140;45.340;5.980;2023-02-17T01:14:58;99291.75;;;2.56;100.00
64713;BME280;51140;45.340;5.980;2023-02-17T01:17:23;99290.91;;;2.50;100.00
64713;BME280;51140;45.340;5.980;2023-02-17T01:19:48;99297.75;;;2.56;100.00
64713;BME280;51140;45.340;5.980;2023-02-17T01:22:14;99290.03;;;2.59;100.00
64713;BME280;51140;45.340;5.980;2023-02-17T01:24:39;99284.88;;;2.62;100.00
64713;BME280;51140;45.340;5.980;2023-02-17T01:27:05;99288.31;;;2.60;100.00
64713;BME280;51140;45.340;5.980;2023-02-17T01:29:30;99282.28;;;2.64;100.00
64713;BME280;51140;45.340;5.980;2023-02-17T01:31:55;99278.00;;;2.64;100.00
64713;BME280;51140;45.340;5.980;2023-02-17T01:34:21;99280.56;;;2.69;100.00
64713;BME280;51140;45.340;5.980;2023-02-17T01:36:46;99266.84;;;2.70;100.00
64713;BME280;51140;45.340;5.980;2023-02-17T01:39:14;99261.69;;;2.68;100.00
64713;BME280;51140;45.340;5.980;2023-02-17T01:41:39;99267.72;;;2.66;100.00
64713;BME280;51140;45.340;5.980;2023-02-17T01:44:09;99269.44;;;2.65;100.00
64713;BME280;51140;45.340;5.980;2023-02-17T01:46:37;99267.72;;;2.66;100.00
64713;BME280;51140;45.340;5.980;2023-02-17T01:51:38;99264.28;;;2.65;100.00
64713;BME280;51140;45.340;5.980;2023-02-17T01:54:33;99259.13;;;2.67;100.00
64713;BME280;51140;45.340;5.980;2023-02-17T01:57:00;99247.13;;;2.70;100.00
64713;BME280;51140;45.340;5.980;2023-02-17T01:59:27;99240.25;;;2.71;100.00
64713;BME280;51140;45.340;5.980;2023-02-17T02:01:57;99231.69;;;2.69;100.00
64713;BME280;51140;45.340;5.980;2023-02-17T02:04:25;99233.38;;;2.74;100.00
64713;BME280;51140;45.340;5.980;2023-02-17T02:06:53;99216.22;;;2.75;100.00
64713;BME280;51140;45.340;5.980;2023-02-17T02:09:26;99212.78;;;2.76;100.00
64713;BME280;51140;45.340;5.980;2023-02-17T02:11:54;99219.66;;;2.71;100.00
64713;BME280;51140;45.340;5.980;2023-02-17T02:14:20;99223.97;;;2.69;100.00
64713;BME280;51140;45.340;5.980;2023-02-17T02:17:02;99223.94;;;2.72;100.00
64713;BME280;51140;45.340;5.980;2023-02-17T02:22:36;99218.81;;;2.69;100.00
64713;BME280;51140;45.340;5.980;2023-02-17T02:33:45;99205.13;;;2.59;100.00
64713;BME280;51140;45.340;5.980;2023-02-17T02:36:34;99198.25;;;2.64;100.00
64713;BME280;51140;45.340;5.980;2023-02-17T02:39:07;99189.66;;;2.70;100.00
64713;BME280;51140;45.340;5.980;2023-02-17T02:42:02;99183.66;;;2.72;100.00
64713;BME280;51140;45.340;5.980;2023-02-17T02:44:29;99170.75;;;2.77;100.00
64713;BME280;51140;45.340;5.980;2023-02-17T02:47:04;99181.91;;;2.74;100.00
64713;BME280;51140;45.340;5.980;2023-02-17T02:49:32;99188.81;;;2.69;100.00
64713;BME280;51140;45.340;5.980;2023-02-17T03:08:15;99272.06;;;2.04;100.00
64713;BME280;51140;45.340;5.980;2023-02-17T03:10:45;99278.06;;;2.06;100.00
64713;BME280;51140;45.340;5.980;2023-02-17T03:13:11;99291.75;;;2.10;100.00
64713;BME280;51140;45.340;5.980;2023-02-17T03:15:36;99300.31;;;2.12;100.00
64713;BME280;51140;45.340;5.980;2023-02-17T03:18:02;99297.75;;;2.16;100.00
64713;BME280;51140;45.340;5.980;2023-02-17T03:20:32;99287.47;;;2.23;100.00
64713;BME280;51140;45.340;5.980;2023-02-17T03:22:59;99280.63;;;2.25;100.00
64713;BME280;51140;45.340;5.980;2023-02-17T03:25:24;99272.91;;;2.23;100.00
64713;BME280;51140;45.340;5.980;2023-02-17T03:27:50;99268.63;;;2.27;100.00
64713;BME280;51140;45.340;5.980;2023-02-17T03:30:15;99269.47;;;2.27;100.00
64713;BME280;51140;45.340;5.980;2023-02-17T03:32:41;99284.06;;;2.13;100.00
64713;BME280;51140;45.340;5.980;2023-02-17T03:35:07;99290.00;;;2.00;100.00
64713;BME280;51140;45.340;5.980;2023-02-17T03:37:33;99289.16;;;1.98;100.00
64713;BME280;51140;45.340;5.980;2023-02-17T03:39:58;99305.44;;;2.00;100.00
64713;BME280;51140;45.340;5.980;2023-02-17T03:42:24;99315.72;;;2.00;100.00
64713;BME280;51140;45.340;5.980;2023-02-17T03:44:49;99314.03;;;2.05;100.00
64713;BME280;51140;45.340;5.980;2023-02-17T03:47:14;99314.91;;;2.05;100.00
64713;BME280;51140;45.340;5.980;2023-02-17T03:49:40;99312.31;;;2.04;100.00
64713;BME280;51140;45.340;5.980;2023-02-17T03:52:05;99310.56;;;1.91;100.00
64713;BME280;51140;45.340;5.980;2023-02-17T03:54:31;99304.56;;;1.95;100.00
64713;BME280;51140;45.340;5.980;2023-02-17T03:56:56;99307.16;;;1.92;100.00
64713;BME280;51140;45.340;5.980;2023-02-17T03:59:23;99315.69;;;1.78;100.00
64713;BME280;51140;45.340;5.980;2023-02-17T04:01:48;99290.00;;;1.84;100.00
64713;BME280;51140;45.340;5.980;2023-02-17T04:04:14;99291.72;;;1.70;100.00
64713;BME280;51140;45.340;5.980;2023-02-17T04:06:39;99301.97;;;1.61;100.00
64713;BME280;51140;45.340;5.980;2023-02-17T04:09:04;99308.84;;;1.73;100.00
64713;BME280;51140;45.340;5.980;2023-02-17T04:11:30;99305.41;;;1.78;100.00
64713;BME280;51140;45.340;5.980;2023-02-17T04:13:55;99292.56;;;1.71;100.00
64713;BME280;51140;45.340;5.980;2023-02-17T04:16:21;99304.56;;;1.81;100.00
64713;BME280;51140;45.340;5.980;2023-02-17T04:18:46;99307.13;;;1.84;100.00
64713;BME280;51140;45.340;5.980;2023-02-17T04:21:12;99319.13;;;1.80;100.00
64713;BME280;51140;45.340;5.980;2023-02-17T04:23:37;99317.41;;;1.85;100.00
64713;BME280;51140;45.340;5.980;2023-02-17T04:26:04;99320.84;;;1.84;100.00
64713;BME280;51140;45.340;5.980;2023-02-17T04:28:30;99319.13;;;1.85;100.00
64713;BME280;51140;45.340;5.980;2023-02-17T04:30:57;99319.13;;;1.85;100.00
64713;BME280;51140;45.340;5.980;2023-02-17T04:33:23;99317.38;;;1.67;100.00
64713;BME280;51140;45.340;5.980;2023-02-17T04:35:49;99328.44;;;1.52;100.00
64713;BME280;51140;45.340;5.980;2023-02-17T04:38:14;99339.41;;;1.15;100.00
64713;BME280;51140;45.340;5.980;2023-02-17T04:40:41;99353.94;;;1.13;100.00
64713;BME280;51140;45.340;5.980;2023-02-17T04:43:07;99359.88;;;1.03;100.00
64713;BME280;51140;45.340;5.980;2023-02-17T04:45:36;99371.81;;;0.94;100.00
64713;BME280;51140;45.340;5.980;2023-02-17T04:48:01;99373.50;;;0.92;100.00
64713;BME280;51140;45.340;5.980;2023-02-17T04:50:27;99384.66;;;0.99;100.00
64713;BME280;51140;45.340;5.980;2023-02-17T04:52:52;99392.34;;;0.96;100.00
64713;BME280;51140;45.340;5.980;2023-02-17T04:55:18;99409.44;;;0.94;100.00
64713;BME280;51140;45.340;5.980;2023-02-17T04:57:44;99419.72;;;0.99;100.00
64713;BME280;51140;45.340;5.980;2023-02-17T05:00:09;99437.69;;;1.00;100.00
64713;BME280;51140;45.340;5.980;2023-02-17T05:02:35;99444.53;;;1.00;100.00
64713;BME280;51140;45.340;5.980;2023-02-17T05:05:01;99453.97;;;1.02;100.00
64713;BME280;51140;45.340;5.980;2023-02-17T05:07:26;99466.81;;;1.05;100.00
64713;BME280;51140;45.340;5.980;2023-02-17T05:09:52;99469.31;;;0.94;100.00
64713;BME280;51140;45.340;5.980;2023-02-17T05:12:18;99473.53;;;0.86;100.00
64713;BME280;51140;45.340;5.980;2023-02-17T05:14:43;99482.94;;;0.87;100.00
64713;BME280;51140;45.340;5.980;2023-02-17T05:17:09;99489.78;;;0.88;100.00
64713;BME280;51140;45.340;5.980;2023-02-17T05:19:34;99494.91;;;0.87;100.00
64713;BME280;51140;45.340;5.980;2023-02-17T05:22:00;99483.78;;;0.88;100.00
64713;BME280;51140;45.340;5.980;2023-02-17T05:24:25;99497.50;;;0.91;100.00
64713;BME280;51140;45.340;5.980;2023-02-17T05:26:51;99496.66;;;0.91;100.00
64713;BME280;51140;45.340;5.980;2023-02-17T05:29:16;99496.66;;;0.92;100.00
64713;BME280;51140;45.340;5.980;2023-02-17T05:31:41;99499.22;;;0.94;100.00
64713;BME280;51140;45.340;5.980;2023-02-17T05:34:07;99499.25;;;0.96;100.00
64713;BME280;51140;45.340;5.980;2023-02-17T05:36:32;99510.34;;;0.91;100.00
64713;BME280;51140;45.340;5.980;2023-02-17T05:38:57;99504.31;;;0.86;100.00
64713;BME280;51140;45.340;5.980;2023-02-17T05:41:23;99503.41;;;0.81;100.00
64713;BME280;51140;45.340;5.980;2023-02-17T05:43:48;99512.00;;;0.88;100.00
64713;BME280;51140;45.340;5.980;2023-02-17T05:46:14;99511.16;;;0.89;100.00
64713;BME280;51140;45.340;5.980;2023-02-17T05:48:39;99517.19;;;0.94;100.00
64713;BME280;51140;45.340;5.980;2023-02-17T05:51:05;99498.47;;;1.06;100.00
64713;BME280;51140;45.340;5.980;2023-02-17T05:53:30;99482.28;;;1.14;100.00
64713;BME280;51140;45.340;5.980;2023-02-17T05:55:56;99463.47;;;1.20;100.00
64713;BME280;51140;45.340;5.980;2023-02-17T05:58:21;99459.28;;;1.28;100.00
64713;BME280;51140;45.340;5.980;2023-02-17T06:00:47;99449.03;;;1.33;100.00
64713;BME280;51140;45.340;5.980;2023-02-17T06:03:13;99451.53;;;1.20;100.00
64713;BME280;51140;45.340;5.980;2023-02-17T06:05:38;99448.97;;;1.20;100.00
64713;BME280;51140;45.340;5.980;2023-02-17T06:08:04;99454.88;;;1.12;100.00
64713;BME280;51140;45.340;5.980;2023-02-17T06:10:30;99446.34;;;1.14;100.00
64713;BME280;51140;45.340;5.980;2023-02-17T06:12:55;99448.94;;;1.19;100.00
64713;BME280;51140;45.340;5.980;2023-02-17T06:15:21;99462.59;;;1.12;100.00
64713;BME280;51140;45.340;5.980;2023-02-17T06:17:46;99474.50;;;1.05;100.00
64713;BME280;51140;45.340;5.980;2023-02-17T06:20:12;99462.53;;;1.03;100.00
64713;BME280;51140;45.340;5.980;2023-02-17T06:22:38;99470.22;;;1.06;100.00
64713;BME280;51140;45.340;5.980;2023-02-17T06:25:04;99454.03;;;1.11;100.00
64713;BME280;51140;45.340;5.980;2023-02-17T06:27:30;99448.13;;;1.21;100.00
64713;BME280;51140;45.340;5.980;2023-02-17T06:29:55;99448.88;;;1.08;100.00
64713;BME280;51140;45.340;5.980;2023-02-17T06:32:20;99450.56;;;1.03;100.00
64713;BME280;51140;45.340;5.980;2023-02-17T06:34:46;99445.44;;;1.06;100.00
64713;BME280;51140;45.340;5.980;2023-02-17T06:37:11;99453.16;;;1.09;100.00
64713;BME280;51140;45.340;5.980;2023-02-17T06:39:37;99448.06;;;1.14;100.00
64713;BME280;51140;45.340;5.980;2023-02-17T06:42:02;99448.91;;;1.14;100.00
64713;BME280;51140;45.340;5.980;2023-02-17T06:44:28;99459.16;;;1.11;100.00
64713;BME280;51140;45.340;5.980;2023-02-17T06:46:53;99455.75;;;1.15;100.00
64713;BME280;51140;45.340;5.980;2023-02-17T06:49:19;99460.06;;;1.18;100.00
64713;BME280;51140;45.340;5.980;2023-02-17T06:51:44;99464.28;;;1.11;100.00
64713;BME280;51140;45.340;5.980;2023-02-17T06:54:10;99452.34;;;1.16;100.00
64713;BME280;51140;45.340;5.980;2023-02-17T06:56:35;99451.56;;;1.25;100.00
64713;BME280;51140;45.340;5.980;2023-02-17T06:59:01;99462.66;;;1.21;100.00
64713;BME280;51140;45.340;5.980;2023-02-17T07:01:27;99442.22;;;1.35;100.00
64713;BME280;51140;45.340;5.980;2023-02-17T07:03:53;99443.06;;;1.37;100.00
64713;BME280;51140;45.340;5.980;2023-02-17T07:06:19;99443.13;;;1.44;100.00
64713;BME280;51140;45.340;5.980;2023-02-17T07:08:45;99439.72;;;1.51;100.00
64713;BME280;51140;45.340;5.980;2023-02-17T07:11:12;99444.03;;;1.55;100.00
64713;BME280;51140;45.340;5.980;2023-02-17T07:13:39;99438.03;;;1.55;100.00
64713;BME280;51140;45.340;5.980;2023-02-17T07:16:05;99441.50;;;1.62;100.00
64713;BME280;51140;45.340;5.980;2023-02-17T07:18:31;99432.13;;;1.68;100.00
64713;BME280;51140;45.340;5.980;2023-02-17T07:20:56;99408.19;;;1.78;100.00
64713;BME280;51140;45.340;5.980;2023-02-17T07:23:22;99413.34;;;1.91;100.00
64713;BME280;51140;45.340;5.980;2023-02-17T07:25:47;99412.50;;;1.98;100.00
64713;BME280;51140;45.340;5.980;2023-02-17T07:28:12;99407.41;;;2.01;100.00
64713;BME280;51140;45.340;5.980;2023-02-17T07:30:39;99414.28;;;2.06;100.00
64713;BME280;51140;45.340;5.980;2023-02-17T07:33:05;99417.72;;;2.13;100.00
64713;BME280;51140;45.340;5.980;2023-02-17T07:35:30;99427.16;;;2.20;100.00
64713;BME280;51140;45.340;5.980;2023-02-17T07:37:56;99429.69;;;2.11;100.00
64713;BME280;51140;45.340;5.980;2023-02-17T07:40:22;99425.41;;;2.04;100.00
64713;BME280;51140;45.340;5.980;2023-02-17T07:42:48;99426.16;;;1.80;100.00
64713;BME280;51140;45.340;5.980;2023-02-17T07:45:14;99426.13;;;1.68;100.00
64713;BME280;51140;45.340;5.980;2023-02-17T07:47:39;99426.03;;;1.54;100.00
64713;BME280;51140;45.340;5.980;2023-02-17T07:50:05;99436.28;;;1.51;100.00
64713;BME280;51140;45.340;5.980;2023-02-17T07:52:31;99444.09;;;1.66;100.00
64713;BME280;51140;45.340;5.980;2023-02-17T07:54:57;99451.78;;;1.65;100.00
64713;BME280;51140;45.340;5.980;2023-02-17T07:57:22;99452.59;;;1.57;100.00
64713;BME280;51140;45.340;5.980;2023-02-17T07:59:48;99456.09;;;1.69;100.00
64713;BME280;51140;45.340;5.980;2023-02-17T08:02:13;99450.97;;;1.73;100.00
64713;BME280;51140;45.340;5.980;2023-02-17T08:04:39;99439.84;;;1.74;100.00
64713;BME280;51140;45.340;5.980;2023-02-17T08:07:04;99431.34;;;1.91;100.00
64713;BME280;51140;45.340;5.980;2023-02-17T08:09:30;99440.84;;;2.10;100.00
64713;BME280;51140;45.340;5.980;2023-02-17T08:12:18;99441.72;;;2.18;100.00
64713;BME280;51140;45.340;5.980;2023-02-17T08:15:04;99433.16;;;2.30;100.00
64713;BME280;51140;45.340;5.980;2023-02-17T08:17:30;99421.22;;;2.45;100.00
64713;BME280;51140;45.340;5.980;2023-02-17T08:19:55;99416.91;;;2.57;100.00
64713;BME280;51140;45.340;5.980;2023-02-17T08:22:21;99415.22;;;2.59;100.00
64713;BME280;51140;45.340;5.980;2023-02-17T08:24:47;99397.19;;;2.51;100.00
64713;BME280;51140;45.340;5.980;2023-02-17T08:27:13;99408.34;;;2.51;100.00
64713;BME280;51140;45.340;5.980;2023-02-17T08:29:39;99406.63;;;2.61;100.00
64713;BME280;51140;45.340;5.980;2023-02-17T08:32:05;99407.47;;;2.68;100.00
64713;BME280;51140;45.340;5.980;2023-02-17T08:34:30;99409.22;;;2.54;100.00
64713;BME280;51140;45.340;5.980;2023-02-17T08:37:03;99401.47;;;2.61;100.00
64713;BME280;51140;45.340;5.980;2023-02-17T08:39:29;99392.91;;;2.67;100.00
64713;BME280;51140;45.340;5.980;2023-02-17T08:41:55;99414.38;;;2.84;100.00
64713;BME280;51140;45.340;5.980;2023-02-17T08:44:20;99419.50;;;2.72;100.00
64713;BME280;51140;45.340;5.980;2023-02-17T08:46:49;99437.53;;;2.84;100.00
64713;BME280;51140;45.340;5.980;2023-02-17T08:49:17;99445.22;;;2.96;100.00
64713;BME280;51140;45.340;5.980;2023-02-17T08:51:43;99440.06;;;3.05;100.00
64713;BME280;51140;45.340;5.980;2023-02-17T08:54:09;99451.22;;;3.01;100.00
64713;BME280;51140;45.340;5.980;2023-02-17T08:56:36;99438.34;;;3.03;100.00
64713;BME280;51140;45.340;5.980;2023-02-17T08:59:03;99574.81;;;3.13;100.00
64713;BME280;51140;45.340;5.980;2023-02-17T09:01:28;99676.06;;;3.15;100.00
64713;BME280;51140;45.340;5.980;2023-02-17T09:03:56;99761.91;;;3.13;100.00
64713;BME280;51140;45.340;5.980;2023-02-17T09:06:21;99815.97;;;3.11;100.00
64713;BME280;51140;45.340;5.980;2023-02-17T09:08:47;99858.03;;;3.13;100.00
64713;BME280;51140;45.340;5.980;2023-02-17T09:11:13;99889.81;;;3.19;100.00
64713;BME280;51140;45.340;5.980;2023-02-17T09:13:41;99904.44;;;3.21;100.00
64713;BME280;51140;45.340;5.980;2023-02-17T09:16:07;99928.53;;;3.28;100.00
64713;BME280;51140;45.340;5.980;2023-02-17T09:18:32;99938.84;;;3.31;100.00
64713;BME280;51140;45.340;5.980;2023-02-17T09:20:58;99938.84;;;3.34;100.00
64713;BME280;51140;45.340;5.980;2023-02-17T09:23:25;99946.59;;;3.37;100.00
64713;BME280;51140;45.340;5.980;2023-02-17T09:26:06;99945.78;;;3.42;100.00
64713;BME280;51140;45.340;5.980;2023-02-17T09:28:33;99925.16;;;3.41;100.00
64713;BME280;51140;45.340;5.980;2023-02-17T09:31:22;99920.88;;;3.44;100.00
64713;BME280;51140;45.340;5.980;2023-02-17T09:33:49;99902.00;;;3.45;100.00
64713;BME280;51140;45.340;5.980;2023-02-17T09:36:19;99896.00;;;3.50;100.00
64713;BME280;51140;45.340;5.980;2023-02-17T09:38:46;99877.09;;;3.51;100.00
64713;BME280;51140;45.340;5.980;2023-02-17T09:43:43;99824.72;;;3.52;100.00
64713;BME280;51140;45.340;5.980;2023-02-17T09:46:14;99808.41;;;3.57;100.00
64713;BME280;51140;45.340;5.980;2023-02-17T09:48:41;99796.44;;;3.62;100.00
64713;BME280;51140;45.340;5.980;2023-02-17T09:51:25;99777.53;;;3.68;100.00
64713;BME280;51140;45.340;5.980;2023-02-17T09:56:27;99741.47;;;3.78;100.00
64713;BME280;51140;45.340;5.980;2023-02-17T09:58:57;99707.09;;;3.83;100.00
64713;BME280;51140;45.340;5.980;2023-02-17T10:01:28;99687.34;;;3.89;100.00
64713;BME280;51140;45.340;5.980;2023-02-17T10:06:54;99628.84;;;4.23;100.00
64713;BME280;51140;45.340;5.980;2023-02-17T10:09:31;99621.03;;;4.52;100.00
64713;BME280;51140;45.340;5.980;2023-02-17T10:12:08;99603.69;;;4.79;100.00
64713;BME280;51140;45.340;5.980;2023-02-17T10:14:39;99601.75;;;5.13;100.00
64713;BME280;51140;45.340;5.980;2023-02-17T10:17:20;99565.34;;;5.45;100.00
64713;BME280;51140;45.340;5.980;2023-02-17T10:20:11;99494.44;;;5.75;100.00
64713;BME280;51140;45.340;5.980;2023-02-17T10:22:38;99423.44;;;6.05;100.00
64713;BME280;51140;45.340;5.980;2023-02-17T10:25:16;99368.63;;;6.35;100.00
64713;BME280;51140;45.340;5.980;2023-02-17T10:27:53;99304.34;;;6.63;100.00
64713;BME280;51140;45.340;5.980;2023-02-17T10:30:34;99273.59;;;6.93;100.00
64713;BME280;51140;45.340;5.980;2023-02-17T10:33:27;99246.00;;;7.33;100.00
64713;BME280;51140;45.340;5.980;2023-02-17T10:38:58;99158.38;;;7.86;100.00
64713;BME280;51140;45.340;5.980;2023-02-17T10:41:34;99135.19;;;8.14;100.00
64713;BME280;51140;45.340;5.980;2023-02-17T10:44:04;99142.09;;;8.47;100.00
64713;BME280;51140;45.340;5.980;2023-02-17T10:46:31;99142.03;;;8.80;100.00
64713;BME280;51140;45.340;5.980;2023-02-17T10:48:57;99128.34;;;9.04;100.00
64713;BME280;51140;45.340;5.980;2023-02-17T10:51:28;99118.16;;;9.26;100.00
64713;BME280;51140;45.340;5.980;2023-02-17T10:54:23;99123.47;;;9.50;100.00
64713;BME280;51140;45.340;5.980;2023-02-17T10:56:54;99130.50;;;9.74;100.00
64713;BME280;51140;45.340;5.980;2023-02-17T10:59:29;99148.00;;;9.95;100.00
64713;BME280;51140;45.340;5.980;2023-02-17T11:01:59;99177.16;;;10.07;100.00
64713;BME280;51140;45.340;5.980;2023-02-17T11:04:40;99185.97;;;10.29;100.00
64713;BME280;51140;45.340;5.980;2023-02-17T11:07:10;99177.44;;;10.50;100.00
64713;BME280;51140;45.340;5.980;2023-02-17T11:09:39;99151.44;;;10.72;100.00
64713;BME280;51140;45.340;5.980;2023-02-17T11:12:15;99133.41;;;10.91;100.00
64713;BME280;51140;45.340;5.980;2023-02-17T11:14:47;99136.38;;;11.04;100.00
64713;BME280;51140;45.340;5.980;2023-02-17T11:17:19;99135.91;;;11.16;100.00
64713;BME280;51140;45.340;5.980;2023-02-17T11:22:45;99153.41;;;11.36;100.00
64713;BME280;51140;45.340;5.980;2023-02-17T11:25:24;99299.00;;;11.26;100.00
64713;BME280;51140;45.340;5.980;2023-02-17T11:28:00;99356.53;;;11.21;100.00
64713;BME280;51140;45.340;5.980;2023-02-17T11:30:29;99393.13;;;11.18;100.00
64713;BME280;51140;45.340;5.980;2023-02-17T11:32:55;99390.53;;;11.18;100.00
64713;BME280;51140;45.340;5.980;2023-02-17T11:35:31;99359.78;;;11.28;100.00
64713;BME280;51140;45.340;5.980;2023-02-17T11:38:15;99354.41;;;11.33;100.00
64713;BME280;51140;45.340;5.980;2023-02-17T11:40:51;99320.03;;;11.45;100.00
64713;BME280;51140;45.340;5.980;2023-02-17T11:43:17;99279.53;;;11.58;100.00
64713;BME280;51140;45.340;5.980;2023-02-17T11:45:54;99228.53;;;11.73;100.00
64713;BME280;51140;45.340;5.980;2023-02-17T11:51:21;99210.75;;;12.04;100.00
64713;BME280;51140;45.340;5.980;2023-02-17T11:54:23;99210.00;;;12.22;100.00
64713;BME280;51140;45.340;5.980;2023-02-17T12:00:09;99268.75;;;12.54;100.00
64713;BME280;51140;45.340;5.980;2023-02-17T12:08:38;99311.13;;;13.03;100.00
64713;BME280;51140;45.340;5.980;2023-02-17T12:16:23;99294.13;;;13.34;100.00
64713;BME280;51140;45.340;5.980;2023-02-17T12:19:08;99359.78;;;13.48;100.00
64713;BME280;51140;45.340;5.980;2023-02-17T12:21:50;99426.41;;;13.41;100.00
64713;BME280;51140;45.340;5.980;2023-02-17T12:24:42;99419.22;;;13.46;100.00
64713;BME280;51140;45.340;5.980;2023-02-17T12:27:41;99442.78;;;13.46;100.00
64713;BME280;51140;45.340;5.980;2023-02-17T12:35:54;99486.81;;;13.57;100.00
64713;BME280;51140;45.340;5.980;2023-02-17T12:38:26;99450.88;;;13.60;100.00
64713;BME280;51140;45.340;5.980;2023-02-17T12:41:16;99441.16;;;13.64;100.00
64713;BME280;51140;45.340;5.980;2023-02-17T12:43:44;99438.34;;;13.68;100.00
64713;BME280;51140;45.340;5.980;2023-02-17T12:46:15;99454.91;;;13.69;100.00
64713;BME280;51140;45.340;5.980;2023-02-17T12:51:57;99446.69;;;13.76;100.00
64713;BME280;51140;45.340;5.980;2023-02-17T12:54:48;99436.94;;;13.80;100.00
64713;BME280;51140;45.340;5.980;2023-02-17T12:57:51;99487.88;;;13.73;100.00
64713;BME280;51140;45.340;5.980;2023-02-17T13:00:26;99487.81;;;13.74;100.00
64713;BME280;51140;45.340;5.980;2023-02-17T13:02:57;99495.75;;;13.73;100.00
64713;BME280;51140;45.340;5.980;2023-02-17T13:05:43;99467.72;;;13.75;100.00
64713;BME280;51140;45.340;5.980;2023-02-17T13:10:43;99487.94;;;13.71;100.00
64713;BME280;51140;45.340;5.980;2023-02-17T13:15:41;99469.63;;;13.71;100.00
64713;BME280;51140;45.340;5.980;2023-02-17T13:18:26;99432.75;;;13.76;100.00
64713;BME280;51140;45.340;5.980;2023-02-17T13:20:57;99421.22;;;13.80;100.00
64713;BME280;51140;45.340;5.980;2023-02-17T13:23:38;99412.38;;;13.83;100.00
64713;BME280;51140;45.340;5.980;2023-02-17T13:26:13;99448.13;;;13.84;100.00
64713;BME280;51140;45.340;5.980;2023-02-17T13:28:39;99478.69;;;13.83;100.00
64713;BME280;51140;45.340;5.980;2023-02-17T13:33:42;99437.22;;;13.93;100.00
64713;BME280;51140;45.340;5.980;2023-02-17T13:36:20;99396.72;;;14.00;100.00
64713;BME280;51140;45.340;5.980;2023-02-17T13:41:46;99411.13;;;14.10;100.00
64713;BME280;51140;45.340;5.980;2023-02-17T13:46:58;99391.50;;;14.19;100.00
64713;BME280;51140;45.340;5.980;2023-02-17T13:49:27;99443.06;;;14.18;100.00
64713;BME280;51140;45.340;5.980;2023-02-17T13:52:06;99441.09;;;14.23;100.00
64713;BME280;51140;45.340;5.980;2023-02-17T13:54:32;99419.00;;;14.29;100.00
64713;BME280;51140;45.340;5.980;2023-02-17T13:56:57;99411.81;;;14.32;100.00
64713;BME280;51140;45.340;5.980;2023-02-17T13:59:24;99409.13;;;14.34;100.00
64713;BME280;51140;45.340;5.980;2023-02-17T14:01:51;99421.16;;;14.38;100.00
64713;BME280;51140;45.340;5.980;2023-02-17T14:04:21;99400.03;;;14.43;100.00
64713;BME280;51140;45.340;5.980;2023-02-17T14:06:46;99420.88;;;14.46;100.00
64713;BME280;51140;45.340;5.980;2023-02-17T14:09:26;99427.66;;;14.50;100.00
64713;BME280;51140;45.340;5.980;2023-02-17T14:11:53;99390.75;;;14.54;100.00
64713;BME280;51140;45.340;5.980;2023-02-17T14:14:21;99395.91;;;14.56;100.00
64713;BME280;51140;45.340;5.980;2023-02-17T14:17:25;99395.75;;;14.59;100.00
64713;BME280;51140;45.340;5.980;2023-02-17T14:19:51;99378.19;;;14.61;100.00
64713;BME280;51140;45.340;5.980;2023-02-17T14:22:27;99372.78;;;14.64;100.00
64713;BME280;51140;45.340;5.980;2023-02-17T14:24:58;99417.38;;;14.64;100.00
64713;BME280;51140;45.340;5.980;2023-02-17T14:27:24;99418.91;;;14.68;100.00
64713;BME280;51140;45.340;5.980;2023-02-17T14:29:49;99435.56;;;14.67;100.00
64713;BME280;51140;45.340;5.980;2023-02-17T14:32:33;99419.69;;;14.70;100.00